createdAt,value
2019-06-01T00:01:06.650Z,96.30
2019-06-01T00:03:42.821Z,95.90
2019-06-01T00:06:19.034Z,96.30
2019-06-01T00:08:55.209Z,96.30
2019-06-01T00:11:31.410Z,96.50
2019-06-01T00:14:07.653Z,96.20
2019-06-01T00:16:44.257Z,96.80
2019-06-01T00:19:20.526Z,96.50
2019-06-01T00:21:56.699Z,96.60
2019-06-01T00:24:32.829Z,96.80
2019-06-01T00:27:09.065Z,97.20
2019-06-01T00:29:45.279Z,97.20
2019-06-01T00:32:21.528Z,97.20
2019-06-01T00:34:57.675Z,97.20
2019-06-01T00:37:33.847Z,97.20
2019-06-01T00:40:09.991Z,97.20
2019-06-01T00:42:46.228Z,97.20
2019-06-01T00:45:22.441Z,97.20
2019-06-01T00:47:58.704Z,97.20
2019-06-01T00:50:34.917Z,97.20
2019-06-01T00:53:11.236Z,97.20
2019-06-01T00:55:47.497Z,97.20
2019-06-01T00:58:24.007Z,97.20
2019-06-01T01:01:00.279Z,97.20
2019-06-01T01:03:36.443Z,97.20
2019-06-01T01:06:12.585Z,97.20
2019-06-01T01:08:49.070Z,97.20
2019-06-01T01:11:25.349Z,97.20
2019-06-01T01:14:01.524Z,97.20
2019-06-01T01:16:37.652Z,97.20
2019-06-01T01:19:13.832Z,97.20
2019-06-01T01:21:52.172Z,97.20
2019-06-01T01:24:28.378Z,97.20
2019-06-01T01:27:04.696Z,97.20
2019-06-01T01:29:40.905Z,97.20
2019-06-01T01:32:17.092Z,97.20
2019-06-01T01:34:53.690Z,97.20
2019-06-01T01:37:29.967Z,97.20
2019-06-01T01:40:06.615Z,97.20
2019-06-01T01:42:42.837Z,97.20
2019-06-01T01:45:19.001Z,97.20
2019-06-01T01:47:55.243Z,97.20
2019-06-01T01:50:31.447Z,97.20
2019-06-01T01:53:07.689Z,97.20
2019-06-01T01:55:44.225Z,97.20
2019-06-01T01:58:20.475Z,97.20
2019-06-01T02:00:58.413Z,97.20
2019-06-01T02:03:34.469Z,97.20
2019-06-01T02:06:10.684Z,97.20
2019-06-01T02:08:46.924Z,97.20
2019-06-01T02:11:23.069Z,97.20
2019-06-01T02:13:59.979Z,97.20
2019-06-01T02:16:36.357Z,97.20
2019-06-01T02:19:12.601Z,97.20
2019-06-01T02:21:48.791Z,97.20
2019-06-01T02:24:25.033Z,97.20
2019-06-01T02:27:01.364Z,97.20
2019-06-01T02:29:37.611Z,97.20
2019-06-01T02:32:13.821Z,97.20
2019-06-01T02:34:49.999Z,97.20
2019-06-01T02:37:26.221Z,97.20
2019-06-01T02:40:03.282Z,97.20
2019-06-01T02:42:41.173Z,97.20
2019-06-01T02:45:18.702Z,97.20
2019-06-01T02:47:55.384Z,97.20
2019-06-01T02:50:31.754Z,97.20
2019-06-01T02:53:08.508Z,97.20
2019-06-01T02:55:44.692Z,97.20
2019-06-01T02:58:20.747Z,97.20
2019-06-01T03:01:12.022Z,97.20
2019-06-01T03:03:48.494Z,97.20
2019-06-01T03:06:27.685Z,97.20
2019-06-01T03:09:06.716Z,97.20
2019-06-01T03:11:43.776Z,97.20
2019-06-01T03:14:22.703Z,97.20
2019-06-01T03:17:01.887Z,97.20
2019-06-01T03:19:40.222Z,97.20
2019-06-01T03:22:17.955Z,97.20
2019-06-01T03:24:57.335Z,97.20
2019-06-01T03:27:34.079Z,97.20
2019-06-01T03:30:15.140Z,97.20
2019-06-01T03:32:49.605Z,97.20
2019-06-01T03:35:25.865Z,97.20
2019-06-01T03:38:02.989Z,97.20
2019-06-01T03:40:39.325Z,97.20
2019-06-01T03:43:16.077Z,97.20
2019-06-01T03:45:52.345Z,97.20
2019-06-01T03:48:28.580Z,97.20
2019-06-01T03:51:05.699Z,97.20
2019-06-01T03:53:42.063Z,97.20
2019-06-01T03:56:18.316Z,97.20
2019-06-01T03:58:54.989Z,97.20
2019-06-01T04:01:31.202Z,97.20
2019-06-01T04:04:07.454Z,97.20
2019-06-01T04:06:43.737Z,97.20
2019-06-01T04:09:20.017Z,97.20
2019-06-01T04:11:56.218Z,97.20
2019-06-01T04:14:32.392Z,97.20
2019-06-01T04:17:08.532Z,97.20
2019-06-01T04:19:44.704Z,97.20
2019-06-01T04:22:20.947Z,97.20
2019-06-01T04:24:57.179Z,97.20
2019-06-01T04:27:33.416Z,97.20
2019-06-01T04:30:09.791Z,97.20
2019-06-01T04:32:49.784Z,97.20
2019-06-01T04:35:23.799Z,97.20
2019-06-01T04:38:00.039Z,97.20
2019-06-01T04:40:36.128Z,97.20
2019-06-01T04:43:12.309Z,97.20
2019-06-01T04:45:48.542Z,97.20
2019-06-01T04:48:24.718Z,97.20
2019-06-01T04:51:00.924Z,97.20
2019-06-01T04:53:37.141Z,97.20
2019-06-01T04:56:13.364Z,96.10
2019-06-01T04:58:49.607Z,96.30
2019-06-01T05:01:25.930Z,93.80
2019-06-01T05:04:02.215Z,94.00
2019-06-01T05:06:38.455Z,92.80
2019-06-01T05:09:15.686Z,91.50
2019-06-01T05:11:52.232Z,91.00
2019-06-01T05:14:28.444Z,90.20
2019-06-01T05:17:05.805Z,89.60
2019-06-01T05:19:42.236Z,88.80
2019-06-01T05:22:18.483Z,89.00
2019-06-01T05:24:54.625Z,88.70
2019-06-01T05:27:30.801Z,87.20
2019-06-01T05:30:09.462Z,85.50
2019-06-01T05:32:45.828Z,84.80
2019-06-01T05:35:22.051Z,84.70
2019-06-01T05:37:58.309Z,83.60
2019-06-01T05:40:34.452Z,83.30
2019-06-01T05:43:14.213Z,84.30
2019-06-01T05:45:48.515Z,82.60
2019-06-01T05:48:28.482Z,82.20
2019-06-01T05:51:02.436Z,81.90
2019-06-01T05:53:38.678Z,81.80
2019-06-01T05:56:14.951Z,82.30
2019-06-01T05:58:51.133Z,80.20
2019-06-01T06:01:27.357Z,80.40
2019-06-01T06:04:03.607Z,81.10
2019-06-01T06:06:39.873Z,81.00
2019-06-01T06:09:17.160Z,78.70
2019-06-01T06:11:54.089Z,79.20
2019-06-01T06:14:30.278Z,78.40
2019-06-01T06:17:06.607Z,77.80
2019-06-01T06:19:42.748Z,78.50
2019-06-01T06:22:18.991Z,76.70
2019-06-01T06:24:55.123Z,74.50
